Debden, Canada
Current Conditions -  °F | °C
As of 12:00 AM on Saturday 20 Dec 2014 (Local Time) from CYPA Reporting Station
Light Snow Light Snow  
Wind Chill:   Ceiling: 300
Heat Index: 16°   Visibility: 2mi
Dew Point: 14°   Wind: 8mph
Humidity: 93%   Direction: 140°SE
Pressure: 29.9"   Gusts: NA
Location:  53.52°N, 106.87°W
Report Text: CYPA 200600Z 14007KT 2SM -SN BR OVC003 M09/M10 A2990 RMK ST8 SLP157
Loading
Personal Weather Stations






























Interactive Weather Map New forecast layout! Learn more

10-Day Weather Forecast

Advertisements
Track Severe Weather on mobile